sensor_id;sensor_type;location;lat;lon;timestamp;temperature;humidity
10129;DHT22;5104;50.720;7.044;2023-12-28T00:02:01;10.20;99.90
10129;DHT22;5104;50.720;7.044;2023-12-28T00:04:28;10.20;99.90
10129;DHT22;5104;50.720;7.044;2023-12-28T00:06:55;10.20;99.90
10129;DHT22;5104;50.720;7.044;2023-12-28T00:09:22;10.20;99.90
10129;DHT22;5104;50.720;7.044;2023-12-28T00:11:48;10.20;99.90
10129;DHT22;5104;50.720;7.044;2023-12-28T00:14:17;10.20;1.00
10129;DHT22;5104;50.720;7.044;2023-12-28T00:16:44;10.30;1.00
10129;DHT22;5104;50.720;7.044;2023-12-28T00:19:10;10.40;1.00
10129;DHT22;5104;50.720;7.044;2023-12-28T00:21:37;10.40;37.30
10129;DHT22;5104;50.720;7.044;2023-12-28T00:24:05;10.40;13.70
10129;DHT22;5104;50.720;7.044;2023-12-28T00:26:32;10.40;88.60
10129;DHT22;5104;50.720;7.044;2023-12-28T00:28:59;10.50;99.90
10129;DHT22;5104;50.720;7.044;2023-12-28T00:31:28;10.40;99.90
10129;DHT22;5104;50.720;7.044;2023-12-28T00:33:55;10.40;99.90
10129;DHT22;5104;50.720;7.044;2023-12-28T00:36:22;10.40;99.90
10129;DHT22;5104;50.720;7.044;2023-12-28T00:38:48;10.40;1.00
10129;DHT22;5104;50.720;7.044;2023-12-28T00:41:15;10.30;99.90
10129;DHT22;5104;50.720;7.044;2023-12-28T00:43:42;10.30;99.90
10129;DHT22;5104;50.720;7.044;2023-12-28T00:46:10;10.20;99.90
10129;DHT22;5104;50.720;7.044;2023-12-28T00:48:38;10.10;99.90
10129;DHT22;5104;50.720;7.044;2023-12-28T00:51:05;10.10;99.90
10129;DHT22;5104;50.720;7.044;2023-12-28T00:53:32;10.10;99.90
10129;DHT22;5104;50.720;7.044;2023-12-28T00:55:59;10.10;99.90
10129;DHT22;5104;50.720;7.044;2023-12-28T00:58:27;10.10;99.90
10129;DHT22;5104;50.720;7.044;2023-12-28T01:00:54;10.00;99.90
10129;DHT22;5104;50.720;7.044;2023-12-28T01:03:22;10.00;1.00
10129;DHT22;5104;50.720;7.044;2023-12-28T01:05:51;10.00;99.90
10129;DHT22;5104;50.720;7.044;2023-12-28T01:08:18;10.00;1.00
10129;DHT22;5104;50.720;7.044;2023-12-28T01:10:46;10.00;1.00
10129;DHT22;5104;50.720;7.044;2023-12-28T01:13:13;10.00;1.00
10129;DHT22;5104;50.720;7.044;2023-12-28T01:15:40;9.90;1.00
10129;DHT22;5104;50.720;7.044;2023-12-28T01:18:07;9.90;1.00
10129;DHT22;5104;50.720;7.044;2023-12-28T01:20:34;9.90;1.00
10129;DHT22;5104;50.720;7.044;2023-12-28T01:23:03;9.90;1.00
10129;DHT22;5104;50.720;7.044;2023-12-28T01:25:30;9.90;1.00
10129;DHT22;5104;50.720;7.044;2023-12-28T01:27:57;9.90;1.00
10129;DHT22;5104;50.720;7.044;2023-12-28T01:30:24;9.90;1.00
10129;DHT22;5104;50.720;7.044;2023-12-28T01:32:51;9.90;1.00
10129;DHT22;5104;50.720;7.044;2023-12-28T01:35:19;9.90;1.00
10129;DHT22;5104;50.720;7.044;2023-12-28T01:37:46;9.90;1.00
10129;DHT22;5104;50.720;7.044;2023-12-28T01:40:15;9.90;1.00
10129;DHT22;5104;50.720;7.044;2023-12-28T01:42:43;9.90;1.00
10129;DHT22;5104;50.720;7.044;2023-12-28T01:45:11;9.90;1.00
10129;DHT22;5104;50.720;7.044;2023-12-28T01:47:40;9.90;1.00
10129;DHT22;5104;50.720;7.044;2023-12-28T01:50:08;9.90;1.00
10129;DHT22;5104;50.720;7.044;2023-12-28T01:52:36;9.90;1.00
10129;DHT22;5104;50.720;7.044;2023-12-28T01:55:04;9.80;1.00
10129;DHT22;5104;50.720;7.044;2023-12-28T01:57:33;9.80;1.00
10129;DHT22;5104;50.720;7.044;2023-12-28T02:00:00;9.80;1.00
10129;DHT22;5104;50.720;7.044;2023-12-28T02:02:30;9.70;1.00
10129;DHT22;5104;50.720;7.044;2023-12-28T02:04:58;9.70;1.00
10129;DHT22;5104;50.720;7.044;2023-12-28T02:07:25;9.70;1.00
10129;DHT22;5104;50.720;7.044;2023-12-28T02:09:52;9.70;1.00
10129;DHT22;5104;50.720;7.044;2023-12-28T02:12:20;9.70;6.70
10129;DHT22;5104;50.720;7.044;2023-12-28T02:14:48;9.70;34.30
10129;DHT22;5104;50.720;7.044;2023-12-28T02:17:19;9.70;1.00
10129;DHT22;5104;50.720;7.044;2023-12-28T02:19:50;9.70;1.00
10129;DHT22;5104;50.720;7.044;2023-12-28T02:22:17;9.60;60.90
10129;DHT22;5104;50.720;7.044;2023-12-28T02:25:07;9.70;70.60
10129;DHT22;5104;50.720;7.044;2023-12-28T02:27:36;9.70;99.90
10129;DHT22;5104;50.720;7.044;2023-12-28T02:30:06;9.70;99.90
10129;DHT22;5104;50.720;7.044;2023-12-28T02:32:43;9.70;99.90
10129;DHT22;5104;50.720;7.044;2023-12-28T02:35:17;9.70;99.90
10129;DHT22;5104;50.720;7.044;2023-12-28T02:37:49;9.70;99.90
10129;DHT22;5104;50.720;7.044;2023-12-28T02:40:19;9.70;1.00
10129;DHT22;5104;50.720;7.044;2023-12-28T02:42:47;9.70;1.00
10129;DHT22;5104;50.720;7.044;2023-12-28T02:45:14;9.70;1.00
10129;DHT22;5104;50.720;7.044;2023-12-28T02:47:41;9.70;1.00
10129;DHT22;5104;50.720;7.044;2023-12-28T02:50:09;9.70;1.00
10129;DHT22;5104;50.720;7.044;2023-12-28T02:52:36;9.60;1.00
10129;DHT22;5104;50.720;7.044;2023-12-28T02:55:04;9.60;1.00
10129;DHT22;5104;50.720;7.044;2023-12-28T02:57:33;9.50;1.00
10129;DHT22;5104;50.720;7.044;2023-12-28T03:00:05;9.40;1.00
10129;DHT22;5104;50.720;7.044;2023-12-28T03:02:34;9.40;1.00
10129;DHT22;5104;50.720;7.044;2023-12-28T03:05:01;9.40;1.00
10129;DHT22;5104;50.720;7.044;2023-12-28T03:07:28;9.30;99.90
10129;DHT22;5104;50.720;7.044;2023-12-28T03:09:55;9.30;99.90
10129;DHT22;5104;50.720;7.044;2023-12-28T03:12:22;9.20;1.00
10129;DHT22;5104;50.720;7.044;2023-12-28T03:14:51;9.30;1.00
10129;DHT22;5104;50.720;7.044;2023-12-28T03:17:18;9.20;1.00
10129;DHT22;5104;50.720;7.044;2023-12-28T03:19:45;9.20;1.00
10129;DHT22;5104;50.720;7.044;2023-12-28T03:22:12;9.10;1.00
10129;DHT22;5104;50.720;7.044;2023-12-28T03:24:39;9.10;61.10
10129;DHT22;5104;50.720;7.044;2023-12-28T03:27:07;9.10;36.10
10129;DHT22;5104;50.720;7.044;2023-12-28T03:29:34;9.10;99.90
10129;DHT22;5104;50.720;7.044;2023-12-28T03:32:03;9.10;99.90
10129;DHT22;5104;50.720;7.044;2023-12-28T03:34:30;9.10;99.90
10129;DHT22;5104;50.720;7.044;2023-12-28T03:36:57;9.10;71.20
10129;DHT22;5104;50.720;7.044;2023-12-28T03:39:24;9.20;1.00
10129;DHT22;5104;50.720;7.044;2023-12-28T03:41:51;9.20;1.00
10129;DHT22;5104;50.720;7.044;2023-12-28T03:44:19;9.20;1.00
10129;DHT22;5104;50.720;7.044;2023-12-28T03:46:47;9.20;1.00
10129;DHT22;5104;50.720;7.044;2023-12-28T03:49:16;9.20;1.00
10129;DHT22;5104;50.720;7.044;2023-12-28T03:51:44;9.20;99.90
10129;DHT22;5104;50.720;7.044;2023-12-28T03:54:11;9.30;82.90
10129;DHT22;5104;50.720;7.044;2023-12-28T03:56:38;9.30;1.00
10129;DHT22;5104;50.720;7.044;2023-12-28T03:59:06;9.30;1.00
10129;DHT22;5104;50.720;7.044;2023-12-28T04:01:33;9.30;1.00
10129;DHT22;5104;50.720;7.044;2023-12-28T04:04:00;9.30;1.00
10129;DHT22;5104;50.720;7.044;2023-12-28T04:06:29;9.30;1.00
10129;DHT22;5104;50.720;7.044;2023-12-28T04:08:56;9.40;99.90
10129;DHT22;5104;50.720;7.044;2023-12-28T04:11:23;9.30;99.90
10129;DHT22;5104;50.720;7.044;2023-12-28T04:13:50;9.40;99.90
10129;DHT22;5104;50.720;7.044;2023-12-28T04:16:17;9.30;99.90
10129;DHT22;5104;50.720;7.044;2023-12-28T04:18:44;9.40;33.70
10129;DHT22;5104;50.720;7.044;2023-12-28T04:21:12;9.40;1.00
10129;DHT22;5104;50.720;7.044;2023-12-28T04:23:41;9.40;1.00
10129;DHT22;5104;50.720;7.044;2023-12-28T04:26:08;9.40;1.00
10129;DHT22;5104;50.720;7.044;2023-12-28T04:28:35;9.50;1.00
10129;DHT22;5104;50.720;7.044;2023-12-28T04:31:03;9.50;1.00
10129;DHT22;5104;50.720;7.044;2023-12-28T04:33:30;9.50;1.00
10129;DHT22;5104;50.720;7.044;2023-12-28T04:36:00;9.50;1.00
10129;DHT22;5104;50.720;7.044;2023-12-28T04:38:27;9.50;1.00
10129;DHT22;5104;50.720;7.044;2023-12-28T04:40:55;9.50;1.00
10129;DHT22;5104;50.720;7.044;2023-12-28T04:43:22;9.40;1.00
10129;DHT22;5104;50.720;7.044;2023-12-28T04:45:50;9.40;1.00
10129;DHT22;5104;50.720;7.044;2023-12-28T04:48:17;9.30;1.00
10129;DHT22;5104;50.720;7.044;2023-12-28T04:50:46;9.30;1.00
10129;DHT22;5104;50.720;7.044;2023-12-28T04:53:14;9.30;1.00
10129;DHT22;5104;50.720;7.044;2023-12-28T04:55:41;9.30;1.00
10129;DHT22;5104;50.720;7.044;2023-12-28T04:58:10;9.20;1.00
10129;DHT22;5104;50.720;7.044;2023-12-28T05:00:37;9.20;1.00
10129;DHT22;5104;50.720;7.044;2023-12-28T05:03:04;9.10;81.00
10129;DHT22;5104;50.720;7.044;2023-12-28T05:05:31;9.10;30.00
10129;DHT22;5104;50.720;7.044;2023-12-28T05:07:58;9.00;99.90
10129;DHT22;5104;50.720;7.044;2023-12-28T05:10:25;8.90;99.90
10129;DHT22;5104;50.720;7.044;2023-12-28T05:12:53;8.90;1.00
10129;DHT22;5104;50.720;7.044;2023-12-28T05:15:21;8.80;1.00
10129;DHT22;5104;50.720;7.044;2023-12-28T05:17:48;8.70;1.00
10129;DHT22;5104;50.720;7.044;2023-12-28T05:20:16;8.70;1.00
10129;DHT22;5104;50.720;7.044;2023-12-28T05:22:43;8.80;1.00
10129;DHT22;5104;50.720;7.044;2023-12-28T05:25:10;8.80;1.00
10129;DHT22;5104;50.720;7.044;2023-12-28T05:27:37;8.70;1.00
10129;DHT22;5104;50.720;7.044;2023-12-28T05:30:06;8.70;1.00
10129;DHT22;5104;50.720;7.044;2023-12-28T05:32:35;8.70;93.60
10129;DHT22;5104;50.720;7.044;2023-12-28T05:35:02;8.80;1.00
10129;DHT22;5104;50.720;7.044;2023-12-28T05:37:30;8.80;1.00
10129;DHT22;5104;50.720;7.044;2023-12-28T05:39:56;8.80;1.00
10129;DHT22;5104;50.720;7.044;2023-12-28T05:42:24;8.80;1.00
10129;DHT22;5104;50.720;7.044;2023-12-28T05:44:51;8.80;1.00
10129;DHT22;5104;50.720;7.044;2023-12-28T05:47:18;8.90;1.00
10129;DHT22;5104;50.720;7.044;2023-12-28T05:49:46;8.90;99.90
10129;DHT22;5104;50.720;7.044;2023-12-28T05:52:13;8.80;99.90
10129;DHT22;5104;50.720;7.044;2023-12-28T05:54:42;8.80;1.00
10129;DHT22;5104;50.720;7.044;2023-12-28T05:57:09;8.90;99.90
10129;DHT22;5104;50.720;7.044;2023-12-28T05:59:37;8.80;1.00
10129;DHT22;5104;50.720;7.044;2023-12-28T06:02:05;8.80;99.90
10129;DHT22;5104;50.720;7.044;2023-12-28T06:04:32;8.80;99.90
10129;DHT22;5104;50.720;7.044;2023-12-28T06:07:03;8.80;99.90
10129;DHT22;5104;50.720;7.044;2023-12-28T06:09:30;8.80;99.90
10129;DHT22;5104;50.720;7.044;2023-12-28T06:11:57;8.80;1.00
10129;DHT22;5104;50.720;7.044;2023-12-28T06:14:24;8.80;99.90
10129;DHT22;5104;50.720;7.044;2023-12-28T06:16:51;8.70;99.90
10129;DHT22;5104;50.720;7.044;2023-12-28T06:19:18;8.80;99.90
10129;DHT22;5104;50.720;7.044;2023-12-28T06:21:45;8.80;99.90
10129;DHT22;5104;50.720;7.044;2023-12-28T06:24:13;8.80;99.90
10129;DHT22;5104;50.720;7.044;2023-12-28T06:26:41;8.70;99.90
10129;DHT22;5104;50.720;7.044;2023-12-28T06:29:08;8.60;99.90
10129;DHT22;5104;50.720;7.044;2023-12-28T06:31:35;8.60;99.90
10129;DHT22;5104;50.720;7.044;2023-12-28T06:34:03;8.60;99.90
10129;DHT22;5104;50.720;7.044;2023-12-28T06:36:30;8.60;99.90
10129;DHT22;5104;50.720;7.044;2023-12-28T06:38:57;8.60;99.90
10129;DHT22;5104;50.720;7.044;2023-12-28T06:41:26;8.50;99.90
10129;DHT22;5104;50.720;7.044;2023-12-28T06:43:53;8.40;99.90
10129;DHT22;5104;50.720;7.044;2023-12-28T06:46:20;8.40;1.00
10129;DHT22;5104;50.720;7.044;2023-12-28T06:48:47;8.40;1.00
10129;DHT22;5104;50.720;7.044;2023-12-28T06:51:17;8.40;1.00
10129;DHT22;5104;50.720;7.044;2023-12-28T06:53:45;8.40;1.00
10129;DHT22;5104;50.720;7.044;2023-12-28T06:56:12;8.40;1.00
10129;DHT22;5104;50.720;7.044;2023-12-28T06:58:41;8.50;1.00
10129;DHT22;5104;50.720;7.044;2023-12-28T07:01:08;8.50;99.90
10129;DHT22;5104;50.720;7.044;2023-12-28T07:03:35;8.40;99.90
10129;DHT22;5104;50.720;7.044;2023-12-28T07:06:02;8.40;1.00
10129;DHT22;5104;50.720;7.044;2023-12-28T07:08:30;8.40;1.00
10129;DHT22;5104;50.720;7.044;2023-12-28T07:10:57;8.40;1.00
10129;DHT22;5104;50.720;7.044;2023-12-28T07:13:24;8.40;1.00
10129;DHT22;5104;50.720;7.044;2023-12-28T07:15:52;8.30;1.00
10129;DHT22;5104;50.720;7.044;2023-12-28T07:18:20;8.40;1.00
10129;DHT22;5104;50.720;7.044;2023-12-28T07:20:47;8.30;1.00
10129;DHT22;5104;50.720;7.044;2023-12-28T07:23:14;8.40;1.00
10129;DHT22;5104;50.720;7.044;2023-12-28T07:25:41;8.50;99.90
10129;DHT22;5104;50.720;7.044;2023-12-28T07:28:08;8.40;1.00
10129;DHT22;5104;50.720;7.044;2023-12-28T07:30:35;8.40;1.00
10129;DHT22;5104;50.720;7.044;2023-12-28T07:33:04;8.40;1.00
10129;DHT22;5104;50.720;7.044;2023-12-28T07:35:31;8.40;1.00
10129;DHT22;5104;50.720;7.044;2023-12-28T07:37:58;8.30;1.00
10129;DHT22;5104;50.720;7.044;2023-12-28T07:40:25;8.30;1.00
10129;DHT22;5104;50.720;7.044;2023-12-28T07:42:52;8.40;1.00
10129;DHT22;5104;50.720;7.044;2023-12-28T07:45:19;8.30;1.00
10129;DHT22;5104;50.720;7.044;2023-12-28T07:47:49;8.30;1.00
10129;DHT22;5104;50.720;7.044;2023-12-28T07:50:18;8.30;1.00
10129;DHT22;5104;50.720;7.044;2023-12-28T07:52:45;8.30;1.00
10129;DHT22;5104;50.720;7.044;2023-12-28T07:55:13;8.20;1.00
10129;DHT22;5104;50.720;7.044;2023-12-28T07:57:40;8.20;32.10
10129;DHT22;5104;50.720;7.044;2023-12-28T08:00:08;8.30;1.00
10129;DHT22;5104;50.720;7.044;2023-12-28T08:02:35;8.30;1.00
10129;DHT22;5104;50.720;7.044;2023-12-28T08:05:02;8.30;1.00
10129;DHT22;5104;50.720;7.044;2023-12-28T08:07:31;8.30;1.00
10129;DHT22;5104;50.720;7.044;2023-12-28T08:09:58;8.30;1.00
10129;DHT22;5104;50.720;7.044;2023-12-28T08:12:25;8.40;1.00
10129;DHT22;5104;50.720;7.044;2023-12-28T08:14:53;8.30;1.00
10129;DHT22;5104;50.720;7.044;2023-12-28T08:17:20;8.30;1.00
10129;DHT22;5104;50.720;7.044;2023-12-28T08:19:47;8.30;1.00
10129;DHT22;5104;50.720;7.044;2023-12-28T08:22:14;8.30;1.00
10129;DHT22;5104;50.720;7.044;2023-12-28T08:24:43;8.30;1.00
10129;DHT22;5104;50.720;7.044;2023-12-28T08:27:10;8.40;1.00
10129;DHT22;5104;50.720;7.044;2023-12-28T08:29:37;8.40;1.00
10129;DHT22;5104;50.720;7.044;2023-12-28T08:32:04;8.40;1.00
10129;DHT22;5104;50.720;7.044;2023-12-28T08:34:31;8.40;99.90
10129;DHT22;5104;50.720;7.044;2023-12-28T08:36:58;8.40;1.00
10129;DHT22;5104;50.720;7.044;2023-12-28T08:39:24;8.40;1.00
10129;DHT22;5104;50.720;7.044;2023-12-28T08:41:53;8.40;1.00
10129;DHT22;5104;50.720;7.044;2023-12-28T08:44:20;8.40;1.00
10129;DHT22;5104;50.720;7.044;2023-12-28T08:46:47;8.40;1.00
10129;DHT22;5104;50.720;7.044;2023-12-28T08:49:13;8.50;99.90
10129;DHT22;5104;50.720;7.044;2023-12-28T08:51:41;8.60;99.90
10129;DHT22;5104;50.720;7.044;2023-12-28T08:54:09;8.60;99.90
10129;DHT22;5104;50.720;7.044;2023-12-28T08:56:36;8.70;86.70
10129;DHT22;5104;50.720;7.044;2023-12-28T08:59:04;8.80;19.60
10129;DHT22;5104;50.720;7.044;2023-12-28T09:01:31;8.90;1.00
10129;DHT22;5104;50.720;7.044;2023-12-28T09:03:58;9.00;1.00
10129;DHT22;5104;50.720;7.044;2023-12-28T09:06:25;9.00;1.00
10129;DHT22;5104;50.720;7.044;2023-12-28T09:08:52;9.10;1.00
10129;DHT22;5104;50.720;7.044;2023-12-28T09:11:19;9.20;99.90
10129;DHT22;5104;50.720;7.044;2023-12-28T09:13:47;9.30;99.90
10129;DHT22;5104;50.720;7.044;2023-12-28T09:16:15;9.40;99.90
10129;DHT22;5104;50.720;7.044;2023-12-28T09:18:42;9.50;99.90
10129;DHT22;5104;50.720;7.044;2023-12-28T09:21:09;9.60;2.80
10129;DHT22;5104;50.720;7.044;2023-12-28T09:23:36;9.90;1.00
10129;DHT22;5104;50.720;7.044;2023-12-28T09:26:04;10.10;1.00
10129;DHT22;5104;50.720;7.044;2023-12-28T09:28:31;10.30;1.00
10129;DHT22;5104;50.720;7.044;2023-12-28T09:30:59;10.40;99.90
10129;DHT22;5104;50.720;7.044;2023-12-28T09:33:27;10.50;99.90
10129;DHT22;5104;50.720;7.044;2023-12-28T09:35:55;10.50;99.90
10129;DHT22;5104;50.720;7.044;2023-12-28T09:38:22;10.60;99.90
10129;DHT22;5104;50.720;7.044;2023-12-28T09:40:53;10.60;99.90
10129;DHT22;5104;50.720;7.044;2023-12-28T09:43:22;10.60;99.90
10129;DHT22;5104;50.720;7.044;2023-12-28T09:45:50;10.60;97.20
10129;DHT22;5104;50.720;7.044;2023-12-28T09:48:17;10.70;72.00
10129;DHT22;5104;50.720;7.044;2023-12-28T09:50:48;10.70;19.60
10129;DHT22;5104;50.720;7.044;2023-12-28T09:53:15;10.80;1.00
10129;DHT22;5104;50.720;7.044;2023-12-28T09:55:43;10.80;1.00
10129;DHT22;5104;50.720;7.044;2023-12-28T09:58:10;10.80;1.00
10129;DHT22;5104;50.720;7.044;2023-12-28T10:00:39;10.90;1.00
10129;DHT22;5104;50.720;7.044;2023-12-28T10:03:07;10.90;1.00
10129;DHT22;5104;50.720;7.044;2023-12-28T10:05:34;10.90;1.00
10129;DHT22;5104;50.720;7.044;2023-12-28T10:08:02;10.90;1.00
10129;DHT22;5104;50.720;7.044;2023-12-28T10:10:29;11.00;1.00
10129;DHT22;5104;50.720;7.044;2023-12-28T10:12:56;11.00;1.00
10129;DHT22;5104;50.720;7.044;2023-12-28T10:15:23;11.10;1.00
10129;DHT22;5104;50.720;7.044;2023-12-28T10:17:51;11.10;1.00
10129;DHT22;5104;50.720;7.044;2023-12-28T10:20:18;11.20;1.00
10129;DHT22;5104;50.720;7.044;2023-12-28T10:22:45;11.20;1.00
10129;DHT22;5104;50.720;7.044;2023-12-28T10:25:14;11.20;1.00
10129;DHT22;5104;50.720;7.044;2023-12-28T10:27:41;11.20;1.00
10129;DHT22;5104;50.720;7.044;2023-12-28T10:30:09;11.30;1.00
10129;DHT22;5104;50.720;7.044;2023-12-28T10:32:39;11.40;1.00
10129;DHT22;5104;50.720;7.044;2023-12-28T10:35:06;11.40;1.00
10129;DHT22;5104;50.720;7.044;2023-12-28T10:37:35;11.50;1.00
10129;DHT22;5104;50.720;7.044;2023-12-28T10:40:07;11.50;1.00
10129;DHT22;5104;50.720;7.044;2023-12-28T10:42:41;11.50;1.00
10129;DHT22;5104;50.720;7.044;2023-12-28T10:45:11;11.50;1.00
10129;DHT22;5104;50.720;7.044;2023-12-28T10:47:43;11.50;1.00
10129;DHT22;5104;50.720;7.044;2023-12-28T10:50:13;11.60;1.00
10129;DHT22;5104;50.720;7.044;2023-12-28T10:52:42;11.60;99.90
10129;DHT22;5104;50.720;7.044;2023-12-28T10:55:21;11.70;99.90
10129;DHT22;5104;50.720;7.044;2023-12-28T10:58:01;11.70;99.90
10129;DHT22;5104;50.720;7.044;2023-12-28T11:00:37;11.70;99.90
10129;DHT22;5104;50.720;7.044;2023-12-28T11:03:10;11.80;99.90
10129;DHT22;5104;50.720;7.044;2023-12-28T11:05:40;11.80;99.90
10129;DHT22;5104;50.720;7.044;2023-12-28T11:08:11;11.80;99.90
10129;DHT22;5104;50.720;7.044;2023-12-28T11:10:39;11.90;99.90
10129;DHT22;5104;50.720;7.044;2023-12-28T11:13:08;11.90;99.90
10129;DHT22;5104;50.720;7.044;2023-12-28T11:15:36;11.90;99.90
10129;DHT22;5104;50.720;7.044;2023-12-28T11:18:04;12.10;99.90
10129;DHT22;5104;50.720;7.044;2023-12-28T11:20:32;12.20;99.50
10129;DHT22;5104;50.720;7.044;2023-12-28T11:23:00;12.20;87.00
10129;DHT22;5104;50.720;7.044;2023-12-28T11:25:31;12.30;1.00
10129;DHT22;5104;50.720;7.044;2023-12-28T11:27:58;12.30;1.00
10129;DHT22;5104;50.720;7.044;2023-12-28T11:30:27;12.30;1.00
10129;DHT22;5104;50.720;7.044;2023-12-28T11:32:56;12.30;1.00
10129;DHT22;5104;50.720;7.044;2023-12-28T11:35:23;12.40;1.00
10129;DHT22;5104;50.720;7.044;2023-12-28T11:37:52;12.50;1.00
10129;DHT22;5104;50.720;7.044;2023-12-28T11:40:19;12.60;1.00
10129;DHT22;5104;50.720;7.044;2023-12-28T11:42:49;12.60;1.00
10129;DHT22;5104;50.720;7.044;2023-12-28T11:45:17;12.60;1.00
10129;DHT22;5104;50.720;7.044;2023-12-28T11:47:46;12.60;1.00
10129;DHT22;5104;50.720;7.044;2023-12-28T11:50:13;12.50;1.00
10129;DHT22;5104;50.720;7.044;2023-12-28T11:52:40;12.60;1.00
10129;DHT22;5104;50.720;7.044;2023-12-28T11:55:07;12.60;1.00
10129;DHT22;5104;50.720;7.044;2023-12-28T11:57:36;12.60;1.00
10129;DHT22;5104;50.720;7.044;2023-12-28T12:00:05;12.70;1.00
10129;DHT22;5104;50.720;7.044;2023-12-28T12:02:33;12.70;1.00
10129;DHT22;5104;50.720;7.044;2023-12-28T12:05:02;12.70;1.00
10129;DHT22;5104;50.720;7.044;2023-12-28T12:07:29;12.60;1.00
10129;DHT22;5104;50.720;7.044;2023-12-28T12:09:57;12.60;1.00
10129;DHT22;5104;50.720;7.044;2023-12-28T12:12:25;12.80;1.00
10129;DHT22;5104;50.720;7.044;2023-12-28T12:14:52;12.80;1.00
10129;DHT22;5104;50.720;7.044;2023-12-28T12:17:19;12.80;1.00
10129;DHT22;5104;50.720;7.044;2023-12-28T12:19:46;12.80;1.00
10129;DHT22;5104;50.720;7.044;2023-12-28T12:22:17;12.80;1.00
10129;DHT22;5104;50.720;7.044;2023-12-28T12:24:47;12.80;1.00
10129;DHT22;5104;50.720;7.044;2023-12-28T12:27:15;12.80;1.00
10129;DHT22;5104;50.720;7.044;2023-12-28T12:29:42;12.70;1.00
10129;DHT22;5104;50.720;7.044;2023-12-28T12:32:10;12.70;1.00
10129;DHT22;5104;50.720;7.044;2023-12-28T12:34:38;12.60;1.00
10129;DHT22;5104;50.720;7.044;2023-12-28T12:37:05;12.70;1.00
10129;DHT22;5104;50.720;7.044;2023-12-28T12:39:34;12.70;1.00
10129;DHT22;5104;50.720;7.044;2023-12-28T12:42:02;12.70;1.00
10129;DHT22;5104;50.720;7.044;2023-12-28T12:44:29;12.80;1.00
10129;DHT22;5104;50.720;7.044;2023-12-28T12:46:56;12.80;1.00
10129;DHT22;5104;50.720;7.044;2023-12-28T12:49:25;12.70;1.00
10129;DHT22;5104;50.720;7.044;2023-12-28T12:51:52;12.80;1.00
10129;DHT22;5104;50.720;7.044;2023-12-28T12:54:19;12.70;1.00
10129;DHT22;5104;50.720;7.044;2023-12-28T12:56:49;12.60;1.00
10129;DHT22;5104;50.720;7.044;2023-12-28T12:59:17;12.50;1.00
10129;DHT22;5104;50.720;7.044;2023-12-28T13:01:44;12.50;1.00
10129;DHT22;5104;50.720;7.044;2023-12-28T13:04:13;12.50;1.00
10129;DHT22;5104;50.720;7.044;2023-12-28T13:06:41;12.60;1.00
10129;DHT22;5104;50.720;7.044;2023-12-28T13:09:08;12.50;1.00
10129;DHT22;5104;50.720;7.044;2023-12-28T13:11:37;12.50;1.00
10129;DHT22;5104;50.720;7.044;2023-12-28T13:14:06;12.50;1.00
10129;DHT22;5104;50.720;7.044;2023-12-28T13:16:33;12.40;1.00
10129;DHT22;5104;50.720;7.044;2023-12-28T13:19:00;12.40;1.00
10129;DHT22;5104;50.720;7.044;2023-12-28T13:21:27;12.40;1.00
10129;DHT22;5104;50.720;7.044;2023-12-28T13:23:54;12.30;1.00
10129;DHT22;5104;50.720;7.044;2023-12-28T13:26:22;12.30;1.00
10129;DHT22;5104;50.720;7.044;2023-12-28T13:28:49;12.30;1.00
10129;DHT22;5104;50.720;7.044;2023-12-28T13:31:17;12.30;1.00
10129;DHT22;5104;50.720;7.044;2023-12-28T13:33:45;12.20;1.00
10129;DHT22;5104;50.720;7.044;2023-12-28T13:36:12;12.20;1.00
10129;DHT22;5104;50.720;7.044;2023-12-28T13:38:39;12.20;1.00
10129;DHT22;5104;50.720;7.044;2023-12-28T13:41:06;12.20;1.00
10129;DHT22;5104;50.720;7.044;2023-12-28T13:43:33;12.20;1.00
10129;DHT22;5104;50.720;7.044;2023-12-28T13:46:00;12.10;1.00
10129;DHT22;5104;50.720;7.044;2023-12-28T13:48:30;12.10;1.00
10129;DHT22;5104;50.720;7.044;2023-12-28T13:50:57;12.20;1.00
10129;DHT22;5104;50.720;7.044;2023-12-28T13:53:24;12.20;1.00
10129;DHT22;5104;50.720;7.044;2023-12-28T13:55:51;12.20;1.00
10129;DHT22;5104;50.720;7.044;2023-12-28T13:58:18;12.20;1.00
10129;DHT22;5104;50.720;7.044;2023-12-28T14:00:45;12.20;1.00
10129;DHT22;5104;50.720;7.044;2023-12-28T14:03:12;12.10;1.00
10129;DHT22;5104;50.720;7.044;2023-12-28T14:05:41;12.10;1.00
10129;DHT22;5104;50.720;7.044;2023-12-28T14:08:08;12.10;1.00
10129;DHT22;5104;50.720;7.044;2023-12-28T14:10:36;12.00;1.00
10129;DHT22;5104;50.720;7.044;2023-12-28T14:13:04;12.00;1.00
10129;DHT22;5104;50.720;7.044;2023-12-28T14:15:31;11.90;1.00
10129;DHT22;5104;50.720;7.044;2023-12-28T14:17:58;11.90;1.00
10129;DHT22;5104;50.720;7.044;2023-12-28T14:20:25;11.90;1.00
10129;DHT22;5104;50.720;7.044;2023-12-28T14:22:55;11.80;1.00
10129;DHT22;5104;50.720;7.044;2023-12-28T14:25:23;11.80;1.00
10129;DHT22;5104;50.720;7.044;2023-12-28T14:27:50;11.80;1.00
10129;DHT22;5104;50.720;7.044;2023-12-28T14:30:18;11.80;1.00
10129;DHT22;5104;50.720;7.044;2023-12-28T14:32:46;11.70;1.00
10129;DHT22;5104;50.720;7.044;2023-12-28T14:35:14;11.70;7.10
10129;DHT22;5104;50.720;7.044;2023-12-28T14:37:42;11.70;13.40
10129;DHT22;5104;50.720;7.044;2023-12-28T14:40:11;11.60;42.40
10129;DHT22;5104;50.720;7.044;2023-12-28T14:42:38;11.60;83.90
10129;DHT22;5104;50.720;7.044;2023-12-28T14:45:07;11.50;99.90
10129;DHT22;5104;50.720;7.044;2023-12-28T14:47:34;11.50;99.90
10129;DHT22;5104;50.720;7.044;2023-12-28T14:50:01;11.50;99.90
10129;DHT22;5104;50.720;7.044;2023-12-28T14:52:31;11.40;99.90
10129;DHT22;5104;50.720;7.044;2023-12-28T14:54:58;11.40;99.90
10129;DHT22;5104;50.720;7.044;2023-12-28T14:57:27;11.30;99.90
10129;DHT22;5104;50.720;7.044;2023-12-28T14:59:54;11.30;99.90
10129;DHT22;5104;50.720;7.044;2023-12-28T15:02:21;11.30;99.90
10129;DHT22;5104;50.720;7.044;2023-12-28T15:04:48;11.20;99.90
10129;DHT22;5104;50.720;7.044;2023-12-28T15:07:15;11.20;99.90
10129;DHT22;5104;50.720;7.044;2023-12-28T15:09:42;11.20;99.90
10129;DHT22;5104;50.720;7.044;2023-12-28T15:12:10;11.20;99.90
10129;DHT22;5104;50.720;7.044;2023-12-28T15:14:39;11.20;99.90
10129;DHT22;5104;50.720;7.044;2023-12-28T15:17:07;11.10;1.00
10129;DHT22;5104;50.720;7.044;2023-12-28T15:19:36;11.00;1.00
10129;DHT22;5104;50.720;7.044;2023-12-28T15:22:04;10.90;1.00
10129;DHT22;5104;50.720;7.044;2023-12-28T15:24:32;10.90;1.00
10129;DHT22;5104;50.720;7.044;2023-12-28T15:26:59;10.80;1.00
10129;DHT22;5104;50.720;7.044;2023-12-28T15:29:26;10.80;1.00
10129;DHT22;5104;50.720;7.044;2023-12-28T15:31:54;10.70;1.00
10129;DHT22;5104;50.720;7.044;2023-12-28T15:34:21;10.70;1.00
10129;DHT22;5104;50.720;7.044;2023-12-28T15:36:48;10.60;1.00
10129;DHT22;5104;50.720;7.044;2023-12-28T15:39:15;10.50;1.00
10129;DHT22;5104;50.720;7.044;2023-12-28T15:41:42;10.40;1.00
10129;DHT22;5104;50.720;7.044;2023-12-28T15:44:09;10.30;38.30
10129;DHT22;5104;50.720;7.044;2023-12-28T15:46:37;10.30;99.90
10129;DHT22;5104;50.720;7.044;2023-12-28T15:49:05;10.40;66.20
10129;DHT22;5104;50.720;7.044;2023-12-28T15:51:32;10.30;99.90
10129;DHT22;5104;50.720;7.044;2023-12-28T15:53:59;10.40;99.90
10129;DHT22;5104;50.720;7.044;2023-12-28T15:56:26;10.40;99.90
10129;DHT22;5104;50.720;7.044;2023-12-28T15:58:53;10.40;99.90
10129;DHT22;5104;50.720;7.044;2023-12-28T16:01:20;10.40;99.90
10129;DHT22;5104;50.720;7.044;2023-12-28T16:03:47;10.40;99.90
10129;DHT22;5104;50.720;7.044;2023-12-28T16:06:16;10.30;99.90
10129;DHT22;5104;50.720;7.044;2023-12-28T16:08:43;10.30;1.00